sensor_id;sensor_type;location;lat;lon;timestamp;pressure;altitude;pressure_sealevel;temperature;humidity
21276;BME280;36472;52.170;20.884;2023-04-21T00:00:08;100864.41;;;12.64;49.58
21276;BME280;36472;52.170;20.884;2023-04-21T00:02:59;100864.75;;;12.59;49.17
21276;BME280;36472;52.170;20.884;2023-04-21T00:05:28;100857.66;;;12.60;49.79
21276;BME280;36472;52.170;20.884;2023-04-21T00:07:57;100865.78;;;12.57;49.74
21276;BME280;36472;52.170;20.884;2023-04-21T00:10:27;100862.50;;;12.53;49.50
21276;BME280;36472;52.170;20.884;2023-04-21T00:12:56;100863.66;;;12.49;50.04
21276;BME280;36472;52.170;20.884;2023-04-21T00:15:25;100860.47;;;12.44;49.60
21276;BME280;36472;52.170;20.884;2023-04-21T00:17:54;100858.88;;;12.41;49.71
21276;BME280;36472;52.170;20.884;2023-04-21T00:20:25;100862.34;;;12.42;49.63
21276;BME280;36472;52.170;20.884;2023-04-21T00:22:54;100857.41;;;12.37;50.05
21276;BME280;36472;52.170;20.884;2023-04-21T00:25:23;100856.44;;;12.38;49.78
21276;BME280;36472;52.170;20.884;2023-04-21T00:27:53;100858.22;;;12.38;49.83
21276;BME280;36472;52.170;20.884;2023-04-21T00:30:23;100858.44;;;12.34;50.15
21276;BME280;36472;52.170;20.884;2023-04-21T00:32:51;100853.16;;;12.34;49.93
21276;BME280;36472;52.170;20.884;2023-04-21T00:35:22;100853.78;;;12.25;50.31
21276;BME280;36472;52.170;20.884;2023-04-21T00:37:51;100852.25;;;12.21;50.44
21276;BME280;36472;52.170;20.884;2023-04-21T00:40:20;100850.78;;;12.17;50.93
21276;BME280;36472;52.170;20.884;2023-04-21T00:42:48;100849.31;;;12.13;51.29
21276;BME280;36472;52.170;20.884;2023-04-21T00:45:19;100851.41;;;12.08;51.50
21276;BME280;36472;52.170;20.884;2023-04-21T00:47:49;100859.69;;;12.02;51.37
21276;BME280;36472;52.170;20.884;2023-04-21T00:50:19;100855.94;;;11.91;51.45
21276;BME280;36472;52.170;20.884;2023-04-21T00:52:48;100856.00;;;11.90;52.11
21276;BME280;36472;52.170;20.884;2023-04-21T00:55:17;100851.78;;;11.87;51.70
21276;BME280;36472;52.170;20.884;2023-04-21T00:57:47;100852.72;;;11.86;52.72
21276;BME280;36472;52.170;20.884;2023-04-21T01:00:19;100851.00;;;11.85;52.27
21276;BME280;36472;52.170;20.884;2023-04-21T01:02:49;100847.63;;;11.83;51.91
21276;BME280;36472;52.170;20.884;2023-04-21T01:05:18;100852.25;;;11.79;51.75
21276;BME280;36472;52.170;20.884;2023-04-21T01:07:48;100848.88;;;11.77;52.11
21276;BME280;36472;52.170;20.884;2023-04-21T01:10:17;100846.34;;;11.76;52.27
21276;BME280;36472;52.170;20.884;2023-04-21T01:12:46;100845.03;;;11.69;52.24
21276;BME280;36472;52.170;20.884;2023-04-21T01:15:16;100849.56;;;11.67;51.99
21276;BME280;36472;52.170;20.884;2023-04-21T01:17:46;100843.53;;;11.65;52.59
21276;BME280;36472;52.170;20.884;2023-04-21T01:20:16;100845.59;;;11.59;52.60
21276;BME280;36472;52.170;20.884;2023-04-21T01:22:46;100839.69;;;11.56;52.32
21276;BME280;36472;52.170;20.884;2023-04-21T01:25:18;100837.47;;;11.50;52.78
21276;BME280;36472;52.170;20.884;2023-04-21T01:27:49;100843.91;;;11.44;52.80
21276;BME280;36472;52.170;20.884;2023-04-21T01:30:21;100844.97;;;11.41;53.49
21276;BME280;36472;52.170;20.884;2023-04-21T01:32:50;100840.94;;;11.36;54.15
21276;BME280;36472;52.170;20.884;2023-04-21T01:35:19;100844.13;;;11.27;54.20
21276;BME280;36472;52.170;20.884;2023-04-21T01:37:49;100840.09;;;11.21;55.11
21276;BME280;36472;52.170;20.884;2023-04-21T01:40:19;100848.06;;;11.19;55.58
21276;BME280;36472;52.170;20.884;2023-04-21T01:42:48;100842.25;;;11.14;56.24
21276;BME280;36472;52.170;20.884;2023-04-21T01:45:17;100833.59;;;11.12;56.20
21276;BME280;36472;52.170;20.884;2023-04-21T01:47:46;100847.03;;;11.08;55.70
21276;BME280;36472;52.170;20.884;2023-04-21T01:50:15;100846.53;;;11.01;55.61
21276;BME280;36472;52.170;20.884;2023-04-21T01:52:43;100841.38;;;10.99;56.05
21276;BME280;36472;52.170;20.884;2023-04-21T01:55:16;100849.53;;;10.95;55.45
21276;BME280;36472;52.170;20.884;2023-04-21T01:57:45;100842.03;;;10.89;56.17
21276;BME280;36472;52.170;20.884;2023-04-21T02:00:15;100837.69;;;10.88;56.69
21276;BME280;36472;52.170;20.884;2023-04-21T02:02:44;100844.81;;;10.85;57.92
21276;BME280;36472;52.170;20.884;2023-04-21T02:05:13;100842.28;;;10.84;57.40
21276;BME280;36472;52.170;20.884;2023-04-21T02:07:42;100842.19;;;10.85;58.22
21276;BME280;36472;52.170;20.884;2023-04-21T02:10:12;100843.13;;;10.84;58.23
21276;BME280;36472;52.170;20.884;2023-04-21T02:12:44;100839.91;;;10.79;57.21
21276;BME280;36472;52.170;20.884;2023-04-21T02:15:13;100844.53;;;10.76;57.39
21276;BME280;36472;52.170;20.884;2023-04-21T02:17:42;100837.50;;;10.76;56.94
21276;BME280;36472;52.170;20.884;2023-04-21T02:20:12;100843.03;;;10.72;57.29
21276;BME280;36472;52.170;20.884;2023-04-21T02:22:40;100835.41;;;10.67;58.05
21276;BME280;36472;52.170;20.884;2023-04-21T02:25:09;100840.75;;;10.65;58.26
21276;BME280;36472;52.170;20.884;2023-04-21T02:27:38;100835.56;;;10.64;58.90
21276;BME280;36472;52.170;20.884;2023-04-21T02:30:09;100842.03;;;10.58;58.29
21276;BME280;36472;52.170;20.884;2023-04-21T02:32:38;100845.72;;;10.56;58.38
21276;BME280;36472;52.170;20.884;2023-04-21T02:35:08;100836.13;;;10.55;58.83
21276;BME280;36472;52.170;20.884;2023-04-21T02:37:37;100832.75;;;10.53;58.54
21276;BME280;36472;52.170;20.884;2023-04-21T02:40:08;100835.44;;;10.51;58.11
21276;BME280;36472;52.170;20.884;2023-04-21T02:42:36;100829.53;;;10.47;58.76
21276;BME280;36472;52.170;20.884;2023-04-21T02:45:09;100840.22;;;10.44;58.08
21276;BME280;36472;52.170;20.884;2023-04-21T02:47:38;100846.59;;;10.40;58.48
21276;BME280;36472;52.170;20.884;2023-04-21T02:50:08;100838.00;;;10.37;58.36
21276;BME280;36472;52.170;20.884;2023-04-21T02:52:37;100838.22;;;10.34;59.62
21276;BME280;36472;52.170;20.884;2023-04-21T02:55:07;100839.34;;;10.28;59.00
21276;BME280;36472;52.170;20.884;2023-04-21T02:57:36;100833.59;;;10.21;59.26
21276;BME280;36472;52.170;20.884;2023-04-21T03:00:09;100840.72;;;10.19;59.29
21276;BME280;36472;52.170;20.884;2023-04-21T03:02:40;100835.84;;;10.13;58.23
21276;BME280;36472;52.170;20.884;2023-04-21T03:05:09;100836.09;;;10.08;59.23
21276;BME280;36472;52.170;20.884;2023-04-21T03:07:39;100835.25;;;10.08;58.72
21276;BME280;36472;52.170;20.884;2023-04-21T03:10:08;100832.63;;;10.08;60.45
21276;BME280;36472;52.170;20.884;2023-04-21T03:12:36;100833.63;;;10.05;60.18
21276;BME280;36472;52.170;20.884;2023-04-21T03:15:06;100840.66;;;10.05;60.08
21276;BME280;36472;52.170;20.884;2023-04-21T03:17:36;100836.34;;;10.04;60.96
21276;BME280;36472;52.170;20.884;2023-04-21T03:20:07;100840.91;;;10.00;60.39
21276;BME280;36472;52.170;20.884;2023-04-21T03:22:36;100828.91;;;9.96;60.63
21276;BME280;36472;52.170;20.884;2023-04-21T03:25:06;100828.16;;;9.94;62.33
21276;BME280;36472;52.170;20.884;2023-04-21T03:27:34;100830.94;;;9.91;62.30
21276;BME280;36472;52.170;20.884;2023-04-21T03:30:05;100839.75;;;9.90;62.02
21276;BME280;36472;52.170;20.884;2023-04-21T03:32:35;100827.81;;;9.84;62.19
21276;BME280;36472;52.170;20.884;2023-04-21T03:35:05;100839.91;;;9.87;62.71
21276;BME280;36472;52.170;20.884;2023-04-21T03:37:34;100839.38;;;9.80;61.64
21276;BME280;36472;52.170;20.884;2023-04-21T03:40:03;100839.38;;;9.80;62.63
21276;BME280;36472;52.170;20.884;2023-04-21T03:42:33;100838.56;;;9.80;62.41
21276;BME280;36472;52.170;20.884;2023-04-21T03:45:04;100830.91;;;9.75;62.75
21276;BME280;36472;52.170;20.884;2023-04-21T03:47:35;100843.28;;;9.73;61.93
21276;BME280;36472;52.170;20.884;2023-04-21T03:50:06;100839.00;;;9.72;61.84
21276;BME280;36472;52.170;20.884;2023-04-21T03:52:35;100838.03;;;9.73;61.67
21276;BME280;36472;52.170;20.884;2023-04-21T03:55:04;100848.53;;;9.73;62.92
21276;BME280;36472;52.170;20.884;2023-04-21T03:57:35;100843.22;;;9.74;63.23
21276;BME280;36472;52.170;20.884;2023-04-21T04:00:06;100845.66;;;9.78;62.75
21276;BME280;36472;52.170;20.884;2023-04-21T04:02:41;100851.09;;;9.74;62.11
21276;BME280;36472;52.170;20.884;2023-04-21T04:05:10;100852.88;;;9.74;62.29
21276;BME280;36472;52.170;20.884;2023-04-21T04:07:39;100856.41;;;9.73;61.74
21276;BME280;36472;52.170;20.884;2023-04-21T04:10:08;100854.47;;;9.77;61.95
21276;BME280;36472;52.170;20.884;2023-04-21T04:12:37;100851.09;;;9.74;60.79
21276;BME280;36472;52.170;20.884;2023-04-21T04:15:07;100862.41;;;9.75;61.17
21276;BME280;36472;52.170;20.884;2023-04-21T04:17:36;100864.81;;;9.80;60.24
21276;BME280;36472;52.170;20.884;2023-04-21T04:20:08;100861.41;;;9.78;61.20
21276;BME280;36472;52.170;20.884;2023-04-21T04:22:36;100866.31;;;9.84;60.30
21276;BME280;36472;52.170;20.884;2023-04-21T04:25:06;100864.47;;;9.86;60.53
21276;BME280;36472;52.170;20.884;2023-04-21T04:27:34;100871.31;;;9.88;60.63
21276;BME280;36472;52.170;20.884;2023-04-21T04:30:05;100864.03;;;9.93;60.46
21276;BME280;36472;52.170;20.884;2023-04-21T04:32:35;100875.13;;;9.99;60.07
21276;BME280;36472;52.170;20.884;2023-04-21T04:35:08;100873.09;;;10.04;59.65
21276;BME280;36472;52.170;20.884;2023-04-21T04:37:39;100870.91;;;10.12;58.78
21276;BME280;36472;52.170;20.884;2023-04-21T04:40:08;100874.13;;;10.17;58.23
21276;BME280;36472;52.170;20.884;2023-04-21T04:42:38;100875.53;;;10.23;57.30
21276;BME280;36472;52.170;20.884;2023-04-21T04:45:08;100877.53;;;10.35;57.55
21276;BME280;36472;52.170;20.884;2023-04-21T04:47:37;100872.94;;;10.39;56.88
21276;BME280;36472;52.170;20.884;2023-04-21T04:50:08;100875.97;;;10.47;56.71
21276;BME280;36472;52.170;20.884;2023-04-21T04:52:37;100878.00;;;10.58;56.79
21276;BME280;36472;52.170;20.884;2023-04-21T04:55:08;100875.88;;;10.64;56.53
21276;BME280;36472;52.170;20.884;2023-04-21T04:57:36;100878.03;;;10.72;56.27
21276;BME280;36472;52.170;20.884;2023-04-21T05:00:07;100880.97;;;10.82;55.42
21276;BME280;36472;52.170;20.884;2023-04-21T05:02:38;100872.84;;;10.87;55.08
21276;BME280;36472;52.170;20.884;2023-04-21T05:05:09;100879.25;;;10.97;55.12
21276;BME280;36472;52.170;20.884;2023-04-21T05:07:38;100873.59;;;11.03;54.62
21276;BME280;36472;52.170;20.884;2023-04-21T05:10:07;100875.59;;;11.14;54.03
21276;BME280;36472;52.170;20.884;2023-04-21T05:12:36;100877.56;;;11.25;54.39
21276;BME280;36472;52.170;20.884;2023-04-21T05:15:06;100869.31;;;11.31;53.12
21276;BME280;36472;52.170;20.884;2023-04-21T05:17:34;100883.50;;;11.42;52.17
21276;BME280;36472;52.170;20.884;2023-04-21T05:20:04;100881.06;;;11.54;51.11
21276;BME280;36472;52.170;20.884;2023-04-21T05:22:37;100869.75;;;11.66;50.38
21276;BME280;36472;52.170;20.884;2023-04-21T05:25:09;100876.25;;;11.75;49.95
21276;BME280;36472;52.170;20.884;2023-04-21T05:27:38;100879.25;;;11.83;50.52
21276;BME280;36472;52.170;20.884;2023-04-21T05:30:08;100882.53;;;12.01;49.21
21276;BME280;36472;52.170;20.884;2023-04-21T05:32:37;100885.03;;;12.17;49.09
21276;BME280;36472;52.170;20.884;2023-04-21T05:35:07;100885.84;;;12.32;49.03
21276;BME280;36472;52.170;20.884;2023-04-21T05:37:37;100887.47;;;12.47;47.44
21276;BME280;36472;52.170;20.884;2023-04-21T05:40:07;100881.28;;;12.61;46.79
21276;BME280;36472;52.170;20.884;2023-04-21T05:42:36;100874.16;;;12.76;45.86
21276;BME280;36472;52.170;20.884;2023-04-21T05:45:06;100881.78;;;12.94;45.52
21276;BME280;36472;52.170;20.884;2023-04-21T05:47:35;100883.91;;;13.14;46.12
21276;BME280;36472;52.170;20.884;2023-04-21T05:50:06;100883.84;;;13.41;45.90
21276;BME280;36472;52.170;20.884;2023-04-21T05:52:36;100880.75;;;13.60;45.29
21276;BME280;36472;52.170;20.884;2023-04-21T05:55:06;100880.19;;;13.81;44.21
21276;BME280;36472;52.170;20.884;2023-04-21T05:57:35;100874.75;;;13.95;43.41
21276;BME280;36472;52.170;20.884;2023-04-21T06:00:06;100877.53;;;14.18;43.42
21276;BME280;36472;52.170;20.884;2023-04-21T06:02:35;100874.63;;;14.34;42.72
21276;BME280;36472;52.170;20.884;2023-04-21T06:05:05;100874.19;;;14.40;41.58
21276;BME280;36472;52.170;20.884;2023-04-21T06:07:36;100876.94;;;14.63;41.54
21276;BME280;36472;52.170;20.884;2023-04-21T06:10:07;100869.03;;;14.74;41.35
21276;BME280;36472;52.170;20.884;2023-04-21T06:12:36;100867.34;;;14.84;40.97
21276;BME280;36472;52.170;20.884;2023-04-21T06:15:06;100871.97;;;15.05;40.67
21276;BME280;36472;52.170;20.884;2023-04-21T06:17:35;100869.38;;;15.27;41.10
21276;BME280;36472;52.170;20.884;2023-04-21T06:20:07;100872.63;;;15.42;40.34
21276;BME280;36472;52.170;20.884;2023-04-21T06:22:37;100876.59;;;15.59;39.66
21276;BME280;36472;52.170;20.884;2023-04-21T06:25:07;100870.34;;;15.83;40.84
21276;BME280;36472;52.170;20.884;2023-04-21T06:27:36;100875.66;;;15.94;38.88
21276;BME280;36472;52.170;20.884;2023-04-21T06:30:07;100871.03;;;16.07;38.10
21276;BME280;36472;52.170;20.884;2023-04-21T06:32:36;100873.88;;;16.16;38.30
21276;BME280;36472;52.170;20.884;2023-04-21T06:35:06;100868.56;;;16.27;37.81
21276;BME280;36472;52.170;20.884;2023-04-21T06:37:35;100863.69;;;16.43;38.18
21276;BME280;36472;52.170;20.884;2023-04-21T06:40:06;100867.50;;;16.51;37.36
21276;BME280;36472;52.170;20.884;2023-04-21T06:42:35;100867.97;;;16.56;36.81
21276;BME280;36472;52.170;20.884;2023-04-21T06:45:05;100865.00;;;16.70;37.37
21276;BME280;36472;52.170;20.884;2023-04-21T06:47:35;100873.63;;;16.83;37.28
21276;BME280;36472;52.170;20.884;2023-04-21T06:50:05;100859.88;;;16.90;38.09
21276;BME280;36472;52.170;20.884;2023-04-21T06:52:35;100861.53;;;16.91;36.60
21276;BME280;36472;52.170;20.884;2023-04-21T06:55:07;100856.81;;;16.94;36.64
21276;BME280;36472;52.170;20.884;2023-04-21T06:57:35;100858.81;;;17.02;35.57
21276;BME280;36472;52.170;20.884;2023-04-21T07:00:06;100860.56;;;17.13;36.20
21276;BME280;36472;52.170;20.884;2023-04-21T07:02:36;100864.53;;;17.59;35.15
21276;BME280;36472;52.170;20.884;2023-04-21T07:05:06;100864.53;;;18.00;34.37
21276;BME280;36472;52.170;20.884;2023-04-21T07:07:35;100870.03;;;18.27;34.13
21276;BME280;36472;52.170;20.884;2023-04-21T07:10:06;100851.84;;;18.32;33.79
21276;BME280;36472;52.170;20.884;2023-04-21T07:12:35;100859.28;;;18.39;33.32
21276;BME280;36472;52.170;20.884;2023-04-21T07:15:07;100866.41;;;18.48;33.18
21276;BME280;36472;52.170;20.884;2023-04-21T07:17:36;100862.09;;;18.57;33.69
21276;BME280;36472;52.170;20.884;2023-04-21T07:20:06;100864.16;;;18.53;32.22
21276;BME280;36472;52.170;20.884;2023-04-21T07:22:35;100867.97;;;18.60;32.31
21276;BME280;36472;52.170;20.884;2023-04-21T07:25:07;100859.53;;;18.75;32.91
21276;BME280;36472;52.170;20.884;2023-04-21T07:27:36;100868.75;;;18.80;32.87
21276;BME280;36472;52.170;20.884;2023-04-21T07:30:07;100867.38;;;18.76;32.04
21276;BME280;36472;52.170;20.884;2023-04-21T07:32:36;100863.75;;;18.87;32.04
21276;BME280;36472;52.170;20.884;2023-04-21T07:35:07;100870.63;;;18.90;31.33
21276;BME280;36472;52.170;20.884;2023-04-21T07:37:35;100867.91;;;18.99;31.99
21276;BME280;36472;52.170;20.884;2023-04-21T07:40:09;100865.06;;;19.20;31.65
21276;BME280;36472;52.170;20.884;2023-04-21T07:42:38;100865.44;;;19.35;31.33
21276;BME280;36472;52.170;20.884;2023-04-21T07:45:08;100862.28;;;19.50;31.58
21276;BME280;36472;52.170;20.884;2023-04-21T07:47:37;100858.72;;;19.59;31.06
21276;BME280;36472;52.170;20.884;2023-04-21T07:50:08;100864.31;;;19.66;29.75
21276;BME280;36472;52.170;20.884;2023-04-21T07:52:37;100862.19;;;19.69;30.04
21276;BME280;36472;52.170;20.884;2023-04-21T07:55:08;100859.81;;;19.76;30.08
21276;BME280;36472;52.170;20.884;2023-04-21T07:57:37;100854.19;;;19.69;30.26
21276;BME280;36472;52.170;20.884;2023-04-21T08:00:08;100852.94;;;19.73;30.70
21276;BME280;36472;52.170;20.884;2023-04-21T08:02:40;100853.63;;;19.75;30.09
21276;BME280;36472;52.170;20.884;2023-04-21T08:05:09;100848.00;;;19.78;29.39
21276;BME280;36472;52.170;20.884;2023-04-21T08:07:38;100847.63;;;19.91;29.76
21276;BME280;36472;52.170;20.884;2023-04-21T08:10:10;100847.06;;;19.97;29.99
21276;BME280;36472;52.170;20.884;2023-04-21T08:12:38;100858.59;;;20.16;29.91
21276;BME280;36472;52.170;20.884;2023-04-21T08:15:08;100846.91;;;20.35;28.55
21276;BME280;36472;52.170;20.884;2023-04-21T08:17:39;100846.69;;;20.46;28.66
21276;BME280;36472;52.170;20.884;2023-04-21T08:20:09;100846.88;;;20.53;28.99
21276;BME280;36472;52.170;20.884;2023-04-21T08:22:38;100855.13;;;20.60;29.34
21276;BME280;36472;52.170;20.884;2023-04-21T08:25:09;100843.41;;;20.70;29.46
21276;BME280;36472;52.170;20.884;2023-04-21T08:27:38;100848.09;;;20.77;28.75
21276;BME280;36472;52.170;20.884;2023-04-21T08:30:08;100852.84;;;20.65;27.78
21276;BME280;36472;52.170;20.884;2023-04-21T08:32:37;100855.97;;;20.60;28.12
21276;BME280;36472;52.170;20.884;2023-04-21T08:35:07;100836.91;;;20.73;27.76
21276;BME280;36472;52.170;20.884;2023-04-21T08:37:37;100847.06;;;20.69;27.61
21276;BME280;36472;52.170;20.884;2023-04-21T08:40:09;100846.34;;;20.85;28.39
21276;BME280;36472;52.170;20.884;2023-04-21T08:42:38;100841.72;;;20.96;26.66
21276;BME280;36472;52.170;20.884;2023-04-21T08:45:08;100840.78;;;21.05;26.80
21276;BME280;36472;52.170;20.884;2023-04-21T08:47:40;100836.19;;;21.15;26.92
21276;BME280;36472;52.170;20.884;2023-04-21T08:50:12;100839.63;;;21.34;27.19
21276;BME280;36472;52.170;20.884;2023-04-21T08:52:42;100830.59;;;21.35;26.21
21276;BME280;36472;52.170;20.884;2023-04-21T08:55:14;100829.88;;;21.24;27.02
21276;BME280;36472;52.170;20.884;2023-04-21T08:57:43;100832.50;;;21.16;26.72
21276;BME280;36472;52.170;20.884;2023-04-21T09:00:13;100832.69;;;21.23;26.53
21276;BME280;36472;52.170;20.884;2023-04-21T09:02:57;100818.41;;;21.32;26.93
21276;BME280;36472;52.170;20.884;2023-04-21T09:05:31;100827.44;;;21.39;27.59
21276;BME280;36472;52.170;20.884;2023-04-21T09:08:09;100819.09;;;21.42;24.84
21276;BME280;36472;52.170;20.884;2023-04-21T09:10:44;100818.09;;;21.43;25.22
21276;BME280;36472;52.170;20.884;2023-04-21T09:13:15;100816.28;;;21.44;24.62
21276;BME280;36472;52.170;20.884;2023-04-21T09:15:46;100833.41;;;21.59;24.82
21276;BME280;36472;52.170;20.884;2023-04-21T09:18:18;100818.09;;;21.86;24.62
21276;BME280;36472;52.170;20.884;2023-04-21T09:20:50;100823.84;;;22.16;24.64
21276;BME280;36472;52.170;20.884;2023-04-21T09:23:20;100812.16;;;22.58;25.96
21276;BME280;36472;52.170;20.884;2023-04-21T09:25:50;100822.69;;;22.84;24.49
21276;BME280;36472;52.170;20.884;2023-04-21T09:28:21;100820.88;;;23.32;23.93
21276;BME280;36472;52.170;20.884;2023-04-21T09:30:54;100812.03;;;23.95;24.15
21276;BME280;36472;52.170;20.884;2023-04-21T09:33:23;100812.78;;;24.73;22.61
21276;BME280;36472;52.170;20.884;2023-04-21T09:36:04;100808.56;;;25.23;22.71
21276;BME280;36472;52.170;20.884;2023-04-21T09:38:33;100812.44;;;25.87;22.00
21276;BME280;36472;52.170;20.884;2023-04-21T09:41:04;100816.03;;;25.94;20.56
21276;BME280;36472;52.170;20.884;2023-04-21T09:43:33;100820.22;;;26.18;21.29
21276;BME280;36472;52.170;20.884;2023-04-21T09:46:02;100813.00;;;26.19;20.65
21276;BME280;36472;52.170;20.884;2023-04-21T09:48:35;100804.97;;;26.04;20.89
21276;BME280;36472;52.170;20.884;2023-04-21T09:51:06;100806.19;;;26.01;20.95
21276;BME280;36472;52.170;20.884;2023-04-21T09:53:40;100792.09;;;25.99;21.82
21276;BME280;36472;52.170;20.884;2023-04-21T09:56:12;100792.16;;;25.69;21.14
21276;BME280;36472;52.170;20.884;2023-04-21T09:58:47;100798.31;;;25.48;22.11
21276;BME280;36472;52.170;20.884;2023-04-21T10:01:19;100791.41;;;25.09;20.91
21276;BME280;36472;52.170;20.884;2023-04-21T10:03:48;100795.66;;;25.18;22.29
21276;BME280;36472;52.170;20.884;2023-04-21T10:06:18;100794.81;;;25.48;21.71
21276;BME280;36472;52.170;20.884;2023-04-21T10:08:49;100780.16;;;25.50;20.44
21276;BME280;36472;52.170;20.884;2023-04-21T10:11:20;100784.50;;;25.88;21.70
21276;BME280;36472;52.170;20.884;2023-04-21T10:13:49;100783.63;;;26.24;20.36
21276;BME280;36472;52.170;20.884;2023-04-21T10:16:18;100778.56;;;26.42;19.93
21276;BME280;36472;52.170;20.884;2023-04-21T10:18:49;100775.59;;;26.59;19.66
21276;BME280;36472;52.170;20.884;2023-04-21T10:21:20;100766.94;;;26.98;20.96
21276;BME280;36472;52.170;20.884;2023-04-21T10:23:51;100772.69;;;26.88;19.98
21276;BME280;36472;52.170;20.884;2023-04-21T10:26:24;100766.25;;;27.24;18.35
21276;BME280;36472;52.170;20.884;2023-04-21T10:28:57;100760.56;;;27.54;19.14
21276;BME280;36472;52.170;20.884;2023-04-21T10:31:32;100767.28;;;27.23;19.06
21276;BME280;36472;52.170;20.884;2023-04-21T10:34:15;100756.25;;;27.18;19.24
21276;BME280;36472;52.170;20.884;2023-04-21T10:37:08;100744.44;;;26.78;19.80
21276;BME280;36472;52.170;20.884;2023-04-21T10:42:38;100755.25;;;26.28;19.22
21276;BME280;36472;52.170;20.884;2023-04-21T10:45:11;100749.09;;;26.34;19.31
21276;BME280;36472;52.170;20.884;2023-04-21T10:47:48;100748.69;;;26.37;19.89
21276;BME280;36472;52.170;20.884;2023-04-21T10:50:23;100750.75;;;26.35;19.87
21276;BME280;36472;52.170;20.884;2023-04-21T10:53:05;100740.97;;;26.27;19.52
21276;BME280;36472;52.170;20.884;2023-04-21T10:55:35;100740.66;;;26.16;19.65
21276;BME280;36472;52.170;20.884;2023-04-21T10:58:07;100737.53;;;26.12;19.42
21276;BME280;36472;52.170;20.884;2023-04-21T11:00:37;100735.81;;;25.89;19.45
21276;BME280;36472;52.170;20.884;2023-04-21T11:03:08;100725.66;;;25.85;20.19
21276;BME280;36472;52.170;20.884;2023-04-21T11:05:39;100726.78;;;25.75;20.99
21276;BME280;36472;52.170;20.884;2023-04-21T11:08:12;100735.47;;;25.71;21.47
21276;BME280;36472;52.170;20.884;2023-04-21T11:10:50;100726.34;;;25.50;21.31
21276;BME280;36472;52.170;20.884;2023-04-21T11:13:24;100714.47;;;25.45;20.47
21276;BME280;36472;52.170;20.884;2023-04-21T11:15:58;100717.69;;;25.33;21.25
21276;BME280;36472;52.170;20.884;2023-04-21T11:18:42;100719.84;;;25.45;21.60
21276;BME280;36472;52.170;20.884;2023-04-21T11:21:13;100700.47;;;25.71;21.86
21276;BME280;36472;52.170;20.884;2023-04-21T11:23:50;100698.78;;;25.70;20.22
21276;BME280;36472;52.170;20.884;2023-04-21T11:26:30;100685.72;;;25.88;21.01
21276;BME280;36472;52.170;20.884;2023-04-21T11:29:03;100693.09;;;26.01;20.23
21276;BME280;36472;52.170;20.884;2023-04-21T11:31:33;100690.91;;;26.40;19.50
21276;BME280;36472;52.170;20.884;2023-04-21T11:34:04;100685.13;;;26.78;19.08
21276;BME280;36472;52.170;20.884;2023-04-21T11:36:34;100689.16;;;27.02;18.47
21276;BME280;36472;52.170;20.884;2023-04-21T11:39:04;100684.34;;;27.39;17.91
21276;BME280;36472;52.170;20.884;2023-04-21T11:41:39;100673.16;;;27.42;19.01
21276;BME280;36472;52.170;20.884;2023-04-21T11:44:11;100682.31;;;27.68;18.43
21276;BME280;36472;52.170;20.884;2023-04-21T11:46:44;100678.97;;;27.59;19.26
21276;BME280;36472;52.170;20.884;2023-04-21T11:49:15;100681.38;;;27.27;18.89
21276;BME280;36472;52.170;20.884;2023-04-21T11:51:44;100678.31;;;26.88;19.21
21276;BME280;36472;52.170;20.884;2023-04-21T11:54:16;100679.63;;;26.29;19.23
21276;BME280;36472;52.170;20.884;2023-04-21T11:56:46;100676.88;;;25.51;19.57
21276;BME280;36472;52.170;20.884;2023-04-21T11:59:21;100670.91;;;24.68;21.05
21276;BME280;36472;52.170;20.884;2023-04-21T12:01:53;100660.69;;;24.19;21.14
21276;BME280;36472;52.170;20.884;2023-04-21T12:04:24;100651.00;;;23.95;21.32
21276;BME280;36472;52.170;20.884;2023-04-21T12:07:01;100656.44;;;23.63;21.65
21276;BME280;36472;52.170;20.884;2023-04-21T12:09:30;100659.75;;;23.19;22.86
21276;BME280;36472;52.170;20.884;2023-04-21T12:11:59;100662.66;;;23.01;22.34
21276;BME280;36472;52.170;20.884;2023-04-21T12:14:32;100655.22;;;22.80;22.71
21276;BME280;36472;52.170;20.884;2023-04-21T12:17:01;100658.47;;;22.67;22.95
21276;BME280;36472;52.170;20.884;2023-04-21T12:19:37;100647.97;;;22.49;22.06
21276;BME280;36472;52.170;20.884;2023-04-21T12:22:08;100643.47;;;22.25;23.64
21276;BME280;36472;52.170;20.884;2023-04-21T12:24:38;100631.44;;;22.21;22.98
21276;BME280;36472;52.170;20.884;2023-04-21T12:27:07;100632.50;;;21.95;22.83
21276;BME280;36472;52.170;20.884;2023-04-21T12:29:39;100627.16;;;21.87;23.24
21276;BME280;36472;52.170;20.884;2023-04-21T12:32:08;100628.13;;;21.86;24.19
21276;BME280;36472;52.170;20.884;2023-04-21T12:34:37;100624.97;;;21.91;23.18
21276;BME280;36472;52.170;20.884;2023-04-21T12:37:06;100626.81;;;21.98;24.04
21276;BME280;36472;52.170;20.884;2023-04-21T12:39:35;100632.34;;;21.97;24.24
21276;BME280;36472;52.170;20.884;2023-04-21T12:42:04;100630.00;;;21.77;22.88
21276;BME280;36472;52.170;20.884;2023-04-21T12:44:33;100615.78;;;21.77;23.58
21276;BME280;36472;52.170;20.884;2023-04-21T12:47:04;100612.78;;;21.72;23.38
21276;BME280;36472;52.170;20.884;2023-04-21T12:49:33;100610.41;;;21.44;22.59
21276;BME280;36472;52.170;20.884;2023-04-21T12:52:02;100616.41;;;21.38;23.11
21276;BME280;36472;52.170;20.884;2023-04-21T12:54:33;100604.56;;;21.40;23.77
21276;BME280;36472;52.170;20.884;2023-04-21T12:57:01;100606.22;;;21.41;24.18
21276;BME280;36472;52.170;20.884;2023-04-21T12:59:31;100604.91;;;21.45;22.98